sensor_id;sensor_type;location;lat;lon;timestamp;P1;durP1;ratioP1;P2;durP2;ratioP2
48891;SDS011;50130;52.150;5.236;2022-07-04T00:00:33;4.5;;;2.31;;
48891;SDS011;50130;52.150;5.236;2022-07-04T00:02:19;8.0;;;2.9;;
48891;SDS011;50130;52.150;5.236;2022-07-04T00:05:52;5.7;;;2.31;;
48891;SDS011;50130;52.150;5.236;2022-07-04T00:07:39;3.7;;;1.9;;
48891;SDS011;50130;52.150;5.236;2022-07-04T00:09:27;3.9;;;1.8;;
48891;SDS011;50130;52.150;5.236;2022-07-04T00:11:14;5.4;;;2.0;;
48891;SDS011;50130;52.150;5.236;2022-07-04T00:13:00;4.7;;;1.8;;
48891;SDS011;50130;52.150;5.236;2022-07-04T00:16:34;6.0;;;1.8;;
48891;SDS011;50130;52.150;5.236;2022-07-04T00:18:21;3.7;;;1.9;;
48891;SDS011;50130;52.150;5.236;2022-07-04T00:20:07;4.91;;;2.1;;
48891;SDS011;50130;52.150;5.236;2022-07-04T00:21:56;5.8;;;2.1;;
48891;SDS011;50130;52.150;5.236;2022-07-04T00:23:42;4.0;;;1.9;;
48891;SDS011;50130;52.150;5.236;2022-07-04T00:25:28;4.91;;;2.0;;
48891;SDS011;50130;52.150;5.236;2022-07-04T00:29:01;6.0;;;1.8;;
48891;SDS011;50130;52.150;5.236;2022-07-04T00:30:47;5.11;;;1.9;;
48891;SDS011;50130;52.150;5.236;2022-07-04T00:32:34;5.4;;;2.1;;
48891;SDS011;50130;52.150;5.236;2022-07-04T00:34:21;4.1;;;2.21;;
48891;SDS011;50130;52.150;5.236;2022-07-04T00:36:08;3.9;;;2.0;;
48891;SDS011;50130;52.150;5.236;2022-07-04T00:37:54;5.0;;;1.9;;
48891;SDS011;50130;52.150;5.236;2022-07-04T00:41:27;4.1;;;1.7;;
48891;SDS011;50130;52.150;5.236;2022-07-04T00:43:16;6.4;;;2.1;;
48891;SDS011;50130;52.150;5.236;2022-07-04T00:45:08;5.4;;;1.9;;
48891;SDS011;50130;52.150;5.236;2022-07-04T00:46:55;5.2;;;1.9;;
48891;SDS011;50130;52.150;5.236;2022-07-04T00:48:42;4.2;;;1.9;;
48891;SDS011;50130;52.150;5.236;2022-07-04T00:50:28;5.9;;;2.21;;
48891;SDS011;50130;52.150;5.236;2022-07-04T00:54:02;4.7;;;1.9;;
48891;SDS011;50130;52.150;5.236;2022-07-04T00:55:51;6.5;;;2.0;;
48891;SDS011;50130;52.150;5.236;2022-07-04T00:57:38;3.7;;;1.7;;
48891;SDS011;50130;52.150;5.236;2022-07-04T00:59:25;4.61;;;2.1;;
48891;SDS011;50130;52.150;5.236;2022-07-04T01:01:12;4.61;;;1.7;;
48891;SDS011;50130;52.150;5.236;2022-07-04T01:02:59;4.0;;;1.9;;
48891;SDS011;50130;52.150;5.236;2022-07-04T01:06:32;3.9;;;1.8;;
48891;SDS011;50130;52.150;5.236;2022-07-04T01:08:19;3.7;;;1.9;;
48891;SDS011;50130;52.150;5.236;2022-07-04T01:10:06;5.5;;;2.1;;
48891;SDS011;50130;52.150;5.236;2022-07-04T01:11:53;4.41;;;1.9;;
48891;SDS011;50130;52.150;5.236;2022-07-04T01:13:41;3.8;;;1.8;;
48891;SDS011;50130;52.150;5.236;2022-07-04T01:17:14;3.4;;;1.8;;
48891;SDS011;50130;52.150;5.236;2022-07-04T01:19:00;5.5;;;2.1;;
48891;SDS011;50130;52.150;5.236;2022-07-04T01:20:49;4.5;;;1.8;;
48891;SDS011;50130;52.150;5.236;2022-07-04T01:22:35;6.9;;;2.1;;
48891;SDS011;50130;52.150;5.236;2022-07-04T01:24:21;7.2;;;2.31;;
48891;SDS011;50130;52.150;5.236;2022-07-04T01:26:07;4.7;;;2.0;;
48891;SDS011;50130;52.150;5.236;2022-07-04T01:29:40;4.2;;;1.9;;
48891;SDS011;50130;52.150;5.236;2022-07-04T01:31:26;5.0;;;1.9;;
48891;SDS011;50130;52.150;5.236;2022-07-04T01:33:13;3.4;;;1.7;;
48891;SDS011;50130;52.150;5.236;2022-07-04T01:35:00;4.91;;;2.1;;
48891;SDS011;50130;52.150;5.236;2022-07-04T01:36:46;4.5;;;1.9;;
48891;SDS011;50130;52.150;5.236;2022-07-04T01:38:33;6.5;;;2.0;;
48891;SDS011;50130;52.150;5.236;2022-07-04T01:42:07;4.0;;;1.8;;
48891;SDS011;50130;52.150;5.236;2022-07-04T01:43:53;4.3;;;2.21;;
48891;SDS011;50130;52.150;5.236;2022-07-04T01:45:40;2.6;;;1.9;;
48891;SDS011;50130;52.150;5.236;2022-07-04T01:47:27;4.5;;;2.21;;
48891;SDS011;50130;52.150;5.236;2022-07-04T01:49:14;4.1;;;1.8;;
48891;SDS011;50130;52.150;5.236;2022-07-04T01:52:46;4.91;;;2.0;;
48891;SDS011;50130;52.150;5.236;2022-07-04T01:54:32;4.1;;;1.9;;
48891;SDS011;50130;52.150;5.236;2022-07-04T01:56:19;5.9;;;2.21;;
48891;SDS011;50130;52.150;5.236;2022-07-04T01:58:05;4.7;;;2.1;;
48891;SDS011;50130;52.150;5.236;2022-07-04T02:02:55;6.6;;;2.21;;
48891;SDS011;50130;52.150;5.236;2022-07-04T02:04:42;4.7;;;2.21;;
48891;SDS011;50130;52.150;5.236;2022-07-04T02:06:28;4.7;;;2.0;;
48891;SDS011;50130;52.150;5.236;2022-07-04T02:08:16;4.7;;;2.1;;
48891;SDS011;50130;52.150;5.236;2022-07-04T02:10:03;5.5;;;2.1;;
48891;SDS011;50130;52.150;5.236;2022-07-04T02:14:54;4.2;;;1.9;;
48891;SDS011;50130;52.150;5.236;2022-07-04T02:16:41;5.4;;;2.0;;
48891;SDS011;50130;52.150;5.236;2022-07-04T02:18:28;2.8;;;2.1;;
48891;SDS011;50130;52.150;5.236;2022-07-04T02:22:02;2.8;;;2.1;;
48891;SDS011;50130;52.150;5.236;2022-07-04T02:23:50;6.0;;;2.31;;
48891;SDS011;50130;52.150;5.236;2022-07-04T02:25:36;4.91;;;2.31;;
48891;SDS011;50130;52.150;5.236;2022-07-04T02:27:22;4.7;;;2.5;;
48891;SDS011;50130;52.150;5.236;2022-07-04T02:29:09;4.1;;;2.6;;
48891;SDS011;50130;52.150;5.236;2022-07-04T02:30:55;4.8;;;2.4;;
48891;SDS011;50130;52.150;5.236;2022-07-04T02:34:29;4.7;;;2.4;;
48891;SDS011;50130;52.150;5.236;2022-07-04T02:36:16;6.4;;;2.21;;
48891;SDS011;50130;52.150;5.236;2022-07-04T02:38:02;6.8;;;2.31;;
48891;SDS011;50130;52.150;5.236;2022-07-04T02:39:48;4.61;;;2.1;;
48891;SDS011;50130;52.150;5.236;2022-07-04T02:41:34;4.1;;;2.1;;
48891;SDS011;50130;52.150;5.236;2022-07-04T02:43:21;3.4;;;2.21;;
48891;SDS011;50130;52.150;5.236;2022-07-04T02:46:55;5.4;;;2.0;;
48891;SDS011;50130;52.150;5.236;2022-07-04T02:48:42;5.9;;;2.4;;
48891;SDS011;50130;52.150;5.236;2022-07-04T02:50:28;4.2;;;2.21;;
48891;SDS011;50130;52.150;5.236;2022-07-04T02:52:15;4.3;;;2.4;;
48891;SDS011;50130;52.150;5.236;2022-07-04T02:54:01;5.6;;;2.4;;
48891;SDS011;50130;52.150;5.236;2022-07-04T02:57:37;4.0;;;2.21;;
48891;SDS011;50130;52.150;5.236;2022-07-04T02:59:23;5.7;;;2.6;;
48891;SDS011;50130;52.150;5.236;2022-07-04T03:01:10;3.4;;;2.21;;
48891;SDS011;50130;52.150;5.236;2022-07-04T03:02:56;3.3;;;2.0;;
48891;SDS011;50130;52.150;5.236;2022-07-04T03:04:42;4.2;;;2.31;;
48891;SDS011;50130;52.150;5.236;2022-07-04T03:06:28;6.1;;;2.31;;
48891;SDS011;50130;52.150;5.236;2022-07-04T03:10:03;3.2;;;2.21;;
48891;SDS011;50130;52.150;5.236;2022-07-04T03:11:50;3.7;;;2.5;;
48891;SDS011;50130;52.150;5.236;2022-07-04T03:13:36;3.7;;;2.5;;
48891;SDS011;50130;52.150;5.236;2022-07-04T03:15:25;3.4;;;2.6;;
48891;SDS011;50130;52.150;5.236;2022-07-04T03:17:11;6.3;;;2.9;;
48891;SDS011;50130;52.150;5.236;2022-07-04T03:18:58;4.61;;;2.7;;
48891;SDS011;50130;52.150;5.236;2022-07-04T03:22:32;4.3;;;3.0;;
48891;SDS011;50130;52.150;5.236;2022-07-04T03:24:18;4.2;;;2.9;;
48891;SDS011;50130;52.150;5.236;2022-07-04T03:26:04;5.3;;;3.2;;
48891;SDS011;50130;52.150;5.236;2022-07-04T03:27:51;6.1;;;2.6;;
48891;SDS011;50130;52.150;5.236;2022-07-04T03:29:37;5.11;;;2.9;;
48891;SDS011;50130;52.150;5.236;2022-07-04T03:33:12;5.9;;;3.0;;
48891;SDS011;50130;52.150;5.236;2022-07-04T03:34:58;3.7;;;2.7;;
48891;SDS011;50130;52.150;5.236;2022-07-04T03:36:44;6.0;;;2.9;;
48891;SDS011;50130;52.150;5.236;2022-07-04T03:38:30;5.3;;;2.7;;
48891;SDS011;50130;52.150;5.236;2022-07-04T03:40:16;5.7;;;2.8;;
48891;SDS011;50130;52.150;5.236;2022-07-04T03:42:04;4.5;;;2.8;;
48891;SDS011;50130;52.150;5.236;2022-07-04T03:45:37;7.0;;;3.3;;
48891;SDS011;50130;52.150;5.236;2022-07-04T03:47:23;4.3;;;3.0;;
48891;SDS011;50130;52.150;5.236;2022-07-04T03:49:10;5.9;;;3.3;;
48891;SDS011;50130;52.150;5.236;2022-07-04T03:50:56;6.5;;;3.4;;
48891;SDS011;50130;52.150;5.236;2022-07-04T03:52:44;4.0;;;3.1;;
48891;SDS011;50130;52.150;5.236;2022-07-04T03:54:31;4.1;;;2.9;;
48891;SDS011;50130;52.150;5.236;2022-07-04T03:58:04;4.5;;;3.0;;
48891;SDS011;50130;52.150;5.236;2022-07-04T03:59:51;5.6;;;3.4;;
48891;SDS011;50130;52.150;5.236;2022-07-04T04:01:37;6.2;;;3.2;;
48891;SDS011;50130;52.150;5.236;2022-07-04T04:06:27;6.2;;;3.8;;
48891;SDS011;50130;52.150;5.236;2022-07-04T04:08:14;5.8;;;3.3;;
48891;SDS011;50130;52.150;5.236;2022-07-04T04:10:00;7.0;;;3.5;;
48891;SDS011;50130;52.150;5.236;2022-07-04T04:11:47;6.0;;;3.6;;
48891;SDS011;50130;52.150;5.236;2022-07-04T04:13:33;6.5;;;3.7;;
48891;SDS011;50130;52.150;5.236;2022-07-04T04:17:07;6.5;;;3.9;;
48891;SDS011;50130;52.150;5.236;2022-07-04T04:18:53;5.6;;;3.9;;
48891;SDS011;50130;52.150;5.236;2022-07-04T04:20:39;4.8;;;4.1;;
48891;SDS011;50130;52.150;5.236;2022-07-04T04:22:27;6.4;;;4.1;;
48891;SDS011;50130;52.150;5.236;2022-07-04T04:24:13;6.1;;;4.1;;
48891;SDS011;50130;52.150;5.236;2022-07-04T04:25:59;5.7;;;3.8;;
48891;SDS011;50130;52.150;5.236;2022-07-04T04:29:32;6.2;;;4.3;;
48891;SDS011;50130;52.150;5.236;2022-07-04T04:31:18;9.71;;;5.0;;
48891;SDS011;50130;52.150;5.236;2022-07-04T04:33:05;8.2;;;4.0;;
48891;SDS011;50130;52.150;5.236;2022-07-04T04:34:51;6.4;;;3.8;;
48891;SDS011;50130;52.150;5.236;2022-07-04T04:36:37;7.8;;;4.1;;
48891;SDS011;50130;52.150;5.236;2022-07-04T04:38:23;8.0;;;4.91;;
48891;SDS011;50130;52.150;5.236;2022-07-04T04:41:58;6.8;;;4.3;;
48891;SDS011;50130;52.150;5.236;2022-07-04T04:43:44;6.3;;;4.61;;
48891;SDS011;50130;52.150;5.236;2022-07-04T04:45:30;8.2;;;5.4;;
48891;SDS011;50130;52.150;5.236;2022-07-04T04:47:16;8.71;;;6.1;;
48891;SDS011;50130;52.150;5.236;2022-07-04T04:49:02;9.71;;;8.2;;
48891;SDS011;50130;52.150;5.236;2022-07-04T04:52:35;12.4;;;9.21;;
48891;SDS011;50130;52.150;5.236;2022-07-04T04:54:22;11.8;;;9.0;;
48891;SDS011;50130;52.150;5.236;2022-07-04T04:56:09;10.6;;;9.1;;
48891;SDS011;50130;52.150;5.236;2022-07-04T04:57:55;14.1;;;10.7;;
48891;SDS011;50130;52.150;5.236;2022-07-04T04:59:41;14.0;;;10.5;;
48891;SDS011;50130;52.150;5.236;2022-07-04T05:01:28;14.5;;;10.21;;
48891;SDS011;50130;52.150;5.236;2022-07-04T05:05:02;13.8;;;11.1;;
48891;SDS011;50130;52.150;5.236;2022-07-04T05:06:49;14.3;;;11.5;;
48891;SDS011;50130;52.150;5.236;2022-07-04T05:08:36;18.2;;;12.4;;
48891;SDS011;50130;52.150;5.236;2022-07-04T05:10:23;14.0;;;10.0;;
48891;SDS011;50130;52.150;5.236;2022-07-04T05:12:09;14.4;;;11.4;;
48891;SDS011;50130;52.150;5.236;2022-07-04T05:15:43;15.1;;;11.0;;
48891;SDS011;50130;52.150;5.236;2022-07-04T05:17:29;11.6;;;8.6;;
48891;SDS011;50130;52.150;5.236;2022-07-04T05:19:15;12.6;;;8.9;;
48891;SDS011;50130;52.150;5.236;2022-07-04T05:21:01;13.4;;;9.4;;
48891;SDS011;50130;52.150;5.236;2022-07-04T05:22:48;12.6;;;9.9;;
48891;SDS011;50130;52.150;5.236;2022-07-04T05:24:39;13.9;;;8.71;;
48891;SDS011;50130;52.150;5.236;2022-07-04T05:28:12;13.2;;;9.71;;
48891;SDS011;50130;52.150;5.236;2022-07-04T05:29:58;13.7;;;9.6;;
48891;SDS011;50130;52.150;5.236;2022-07-04T05:31:45;15.0;;;9.6;;
48891;SDS011;50130;52.150;5.236;2022-07-04T05:33:31;14.2;;;9.4;;
48891;SDS011;50130;52.150;5.236;2022-07-04T05:35:17;15.3;;;10.21;;
48891;SDS011;50130;52.150;5.236;2022-07-04T05:37:03;16.8;;;10.0;;
48891;SDS011;50130;52.150;5.236;2022-07-04T05:40:38;13.4;;;9.4;;
48891;SDS011;50130;52.150;5.236;2022-07-04T05:42:24;12.0;;;7.9;;
48891;SDS011;50130;52.150;5.236;2022-07-04T05:44:11;15.2;;;8.6;;
48891;SDS011;50130;52.150;5.236;2022-07-04T05:45:57;12.6;;;8.0;;
48891;SDS011;50130;52.150;5.236;2022-07-04T05:47:44;13.0;;;7.2;;
48891;SDS011;50130;52.150;5.236;2022-07-04T05:49:31;15.2;;;9.21;;
48891;SDS011;50130;52.150;5.236;2022-07-04T05:53:03;15.4;;;9.0;;
48891;SDS011;50130;52.150;5.236;2022-07-04T05:54:49;14.2;;;9.0;;
48891;SDS011;50130;52.150;5.236;2022-07-04T05:56:37;13.9;;;9.0;;
48891;SDS011;50130;52.150;5.236;2022-07-04T05:58:24;13.3;;;7.8;;
48891;SDS011;50130;52.150;5.236;2022-07-04T06:00:12;11.2;;;7.6;;
48891;SDS011;50130;52.150;5.236;2022-07-04T06:03:46;13.1;;;7.8;;
48891;SDS011;50130;52.150;5.236;2022-07-04T06:05:32;11.0;;;7.3;;
48891;SDS011;50130;52.150;5.236;2022-07-04T06:07:18;13.4;;;7.6;;
48891;SDS011;50130;52.150;5.236;2022-07-04T06:09:05;13.7;;;7.3;;
48891;SDS011;50130;52.150;5.236;2022-07-04T06:10:51;12.1;;;6.4;;
48891;SDS011;50130;52.150;5.236;2022-07-04T06:12:38;13.3;;;6.4;;
48891;SDS011;50130;52.150;5.236;2022-07-04T06:16:10;9.6;;;5.3;;
48891;SDS011;50130;52.150;5.236;2022-07-04T06:17:56;10.6;;;5.4;;
48891;SDS011;50130;52.150;5.236;2022-07-04T06:19:43;12.4;;;6.0;;
48891;SDS011;50130;52.150;5.236;2022-07-04T06:21:30;11.6;;;5.11;;
48891;SDS011;50130;52.150;5.236;2022-07-04T06:23:16;10.7;;;5.11;;
48891;SDS011;50130;52.150;5.236;2022-07-04T06:26:51;14.5;;;5.2;;
48891;SDS011;50130;52.150;5.236;2022-07-04T06:28:37;13.2;;;5.7;;
48891;SDS011;50130;52.150;5.236;2022-07-04T06:30:23;28.6;;;5.5;;
48891;SDS011;50130;52.150;5.236;2022-07-04T06:32:10;12.3;;;4.41;;
48891;SDS011;50130;52.150;5.236;2022-07-04T06:36:59;13.8;;;5.2;;
48891;SDS011;50130;52.150;5.236;2022-07-04T06:38:46;13.1;;;4.61;;
48891;SDS011;50130;52.150;5.236;2022-07-04T06:40:32;15.3;;;5.8;;
48891;SDS011;50130;52.150;5.236;2022-07-04T06:42:20;14.0;;;4.41;;
48891;SDS011;50130;52.150;5.236;2022-07-04T06:44:06;15.2;;;5.0;;
48891;SDS011;50130;52.150;5.236;2022-07-04T06:47:40;14.9;;;4.8;;
48891;SDS011;50130;52.150;5.236;2022-07-04T06:49:26;14.9;;;4.8;;
48891;SDS011;50130;52.150;5.236;2022-07-04T06:51:13;12.8;;;4.91;;
48891;SDS011;50130;52.150;5.236;2022-07-04T06:54:48;13.9;;;4.5;;
48891;SDS011;50130;52.150;5.236;2022-07-04T06:56:34;10.8;;;4.1;;
48891;SDS011;50130;52.150;5.236;2022-07-04T07:00:08;13.8;;;4.8;;
48891;SDS011;50130;52.150;5.236;2022-07-04T07:01:56;13.7;;;5.0;;
48891;SDS011;50130;52.150;5.236;2022-07-04T07:03:42;13.1;;;4.3;;
48891;SDS011;50130;52.150;5.236;2022-07-04T07:05:29;14.0;;;4.7;;
48891;SDS011;50130;52.150;5.236;2022-07-04T07:07:17;12.3;;;4.3;;
48891;SDS011;50130;52.150;5.236;2022-07-04T07:09:03;15.0;;;4.61;;
48891;SDS011;50130;52.150;5.236;2022-07-04T07:12:37;11.5;;;3.3;;
48891;SDS011;50130;52.150;5.236;2022-07-04T07:14:23;12.8;;;3.2;;
48891;SDS011;50130;52.150;5.236;2022-07-04T07:16:10;9.71;;;3.5;;
48891;SDS011;50130;52.150;5.236;2022-07-04T07:17:57;12.0;;;3.5;;
48891;SDS011;50130;52.150;5.236;2022-07-04T07:19:43;14.9;;;4.0;;
48891;SDS011;50130;52.150;5.236;2022-07-04T07:23:18;10.8;;;3.1;;
48891;SDS011;50130;52.150;5.236;2022-07-04T07:25:04;8.4;;;3.0;;
48891;SDS011;50130;52.150;5.236;2022-07-04T07:26:51;11.0;;;3.2;;
48891;SDS011;50130;52.150;5.236;2022-07-04T07:28:38;7.0;;;2.31;;
48891;SDS011;50130;52.150;5.236;2022-07-04T07:30:25;10.1;;;2.6;;
48891;SDS011;50130;52.150;5.236;2022-07-04T07:32:13;9.1;;;2.1;;
48891;SDS011;50130;52.150;5.236;2022-07-04T07:35:46;8.31;;;2.8;;
48891;SDS011;50130;52.150;5.236;2022-07-04T07:37:32;8.6;;;2.6;;
48891;SDS011;50130;52.150;5.236;2022-07-04T07:39:19;10.3;;;2.5;;
48891;SDS011;50130;52.150;5.236;2022-07-04T07:41:07;7.9;;;2.5;;
48891;SDS011;50130;52.150;5.236;2022-07-04T07:42:54;8.4;;;2.5;;
48891;SDS011;50130;52.150;5.236;2022-07-04T07:44:41;6.6;;;2.0;;
48891;SDS011;50130;52.150;5.236;2022-07-04T07:48:14;7.2;;;2.4;;
48891;SDS011;50130;52.150;5.236;2022-07-04T07:50:03;8.1;;;2.8;;
48891;SDS011;50130;52.150;5.236;2022-07-04T07:51:51;9.6;;;2.5;;
48891;SDS011;50130;52.150;5.236;2022-07-04T07:53:39;9.0;;;2.21;;
48891;SDS011;50130;52.150;5.236;2022-07-04T07:55:25;8.5;;;2.6;;
48891;SDS011;50130;52.150;5.236;2022-07-04T07:57:12;7.4;;;2.21;;
48891;SDS011;50130;52.150;5.236;2022-07-04T08:00:44;5.9;;;2.1;;
48891;SDS011;50130;52.150;5.236;2022-07-04T08:05:32;7.6;;;2.0;;
48891;SDS011;50130;52.150;5.236;2022-07-04T08:09:05;5.4;;;1.6;;
48891;SDS011;50130;52.150;5.236;2022-07-04T08:10:52;4.91;;;1.8;;
48891;SDS011;50130;52.150;5.236;2022-07-04T08:12:39;7.0;;;2.1;;
48891;SDS011;50130;52.150;5.236;2022-07-04T08:14:26;6.2;;;2.0;;
48891;SDS011;50130;52.150;5.236;2022-07-04T08:16:13;5.5;;;1.6;;
48891;SDS011;50130;52.150;5.236;2022-07-04T08:19:47;35.31;;;2.4;;
48891;SDS011;50130;52.150;5.236;2022-07-04T08:21:34;5.9;;;1.7;;
48891;SDS011;50130;52.150;5.236;2022-07-04T08:23:23;5.3;;;1.7;;
48891;SDS011;50130;52.150;5.236;2022-07-04T08:25:10;5.8;;;1.7;;
48891;SDS011;50130;52.150;5.236;2022-07-04T08:26:58;4.0;;;1.4;;
48891;SDS011;50130;52.150;5.236;2022-07-04T08:28:44;4.5;;;1.2;;
48891;SDS011;50130;52.150;5.236;2022-07-04T08:32:18;5.5;;;1.4;;
48891;SDS011;50130;52.150;5.236;2022-07-04T08:34:05;3.3;;;1.4;;
48891;SDS011;50130;52.150;5.236;2022-07-04T08:35:53;3.5;;;1.11;;
48891;SDS011;50130;52.150;5.236;2022-07-04T08:37:40;4.61;;;1.4;;
48891;SDS011;50130;52.150;5.236;2022-07-04T08:39:28;5.5;;;1.5;;
48891;SDS011;50130;52.150;5.236;2022-07-04T08:41:15;3.9;;;1.11;;
48891;SDS011;50130;52.150;5.236;2022-07-04T08:44:52;4.3;;;1.2;;
48891;SDS011;50130;52.150;5.236;2022-07-04T08:46:40;4.0;;;1.4;;
48891;SDS011;50130;52.150;5.236;2022-07-04T08:48:27;3.7;;;1.11;;
48891;SDS011;50130;52.150;5.236;2022-07-04T08:50:20;4.7;;;1.4;;
48891;SDS011;50130;52.150;5.236;2022-07-04T08:52:15;4.41;;;1.5;;
48891;SDS011;50130;52.150;5.236;2022-07-04T09:00:21;4.7;;;1.6;;
48891;SDS011;50130;52.150;5.236;2022-07-04T09:02:07;4.3;;;1.6;;
48891;SDS011;50130;52.150;5.236;2022-07-04T09:05:42;4.61;;;1.5;;
48891;SDS011;50130;52.150;5.236;2022-07-04T09:07:29;28.3;;;1.5;;
48891;SDS011;50130;52.150;5.236;2022-07-04T09:09:16;3.2;;;1.2;;
48891;SDS011;50130;52.150;5.236;2022-07-04T09:11:03;4.1;;;1.4;;
48891;SDS011;50130;52.150;5.236;2022-07-04T09:12:51;4.1;;;1.2;;
48891;SDS011;50130;52.150;5.236;2022-07-04T09:14:38;3.7;;;1.5;;
48891;SDS011;50130;52.150;5.236;2022-07-04T09:18:20;3.7;;;1.5;;
48891;SDS011;50130;52.150;5.236;2022-07-04T09:20:10;2.9;;;1.2;;
48891;SDS011;50130;52.150;5.236;2022-07-04T09:22:02;3.8;;;1.6;;
48891;SDS011;50130;52.150;5.236;2022-07-04T09:23:49;2.0;;;1.0;;
48891;SDS011;50130;52.150;5.236;2022-07-04T09:25:35;3.3;;;1.0;;
48891;SDS011;50130;52.150;5.236;2022-07-04T09:27:30;3.1;;;0.9;;
48891;SDS011;50130;52.150;5.236;2022-07-04T09:29:18;2.9;;;1.11;;
48891;SDS011;50130;52.150;5.236;2022-07-04T09:33:07;8.31;;;1.11;;
48891;SDS011;50130;52.150;5.236;2022-07-04T09:34:54;3.7;;;2.31;;
48891;SDS011;50130;52.150;5.236;2022-07-04T09:36:43;3.7;;;1.7;;
48891;SDS011;50130;52.150;5.236;2022-07-04T09:38:31;3.1;;;2.1;;
48891;SDS011;50130;52.150;5.236;2022-07-04T09:40:21;2.6;;;1.11;;
48891;SDS011;50130;52.150;5.236;2022-07-04T09:42:11;2.5;;;1.11;;
48891;SDS011;50130;52.150;5.236;2022-07-04T09:43:59;66.0;;;5.6;;
48891;SDS011;50130;52.150;5.236;2022-07-04T09:47:45;127.3;;;7.6;;
48891;SDS011;50130;52.150;5.236;2022-07-04T09:49:31;3.1;;;2.4;;
48891;SDS011;50130;52.150;5.236;2022-07-04T09:51:21;18.8;;;2.21;;
48891;SDS011;50130;52.150;5.236;2022-07-04T09:53:25;4.61;;;1.11;;
48891;SDS011;50130;52.150;5.236;2022-07-04T09:55:19;87.1;;;4.91;;
48891;SDS011;50130;52.150;5.236;2022-07-04T09:57:08;3.2;;;1.2;;
48891;SDS011;50130;52.150;5.236;2022-07-04T09:58:56;20.0;;;3.0;;
48891;SDS011;50130;52.150;5.236;2022-07-04T10:00:43;80.7;;;5.5;;
48891;SDS011;50130;52.150;5.236;2022-07-04T10:04:21;19.2;;;3.2;;
48891;SDS011;50130;52.150;5.236;2022-07-04T10:06:09;214.4;;;9.31;;
48891;SDS011;50130;52.150;5.236;2022-07-04T10:07:57;3.1;;;1.3;;
48891;SDS011;50130;52.150;5.236;2022-07-04T10:09:44;5.3;;;2.0;;
48891;SDS011;50130;52.150;5.236;2022-07-04T10:11:32;4.41;;;1.3;;
48891;SDS011;50130;52.150;5.236;2022-07-04T10:13:19;4.0;;;1.2;;
48891;SDS011;50130;52.150;5.236;2022-07-04T10:16:55;146.71;;;6.6;;
48891;SDS011;50130;52.150;5.236;2022-07-04T10:18:41;1.5;;;0.7;;
48891;SDS011;50130;52.150;5.236;2022-07-04T10:20:27;625.31;;;25.3;;
48891;SDS011;50130;52.150;5.236;2022-07-04T10:22:14;3.4;;;1.2;;
48891;SDS011;50130;52.150;5.236;2022-07-04T10:24:03;67.41;;;4.91;;
48891;SDS011;50130;52.150;5.236;2022-07-04T10:25:50;132.4;;;5.8;;
48891;SDS011;50130;52.150;5.236;2022-07-04T10:29:25;39.9;;;2.5;;
48891;SDS011;50130;52.150;5.236;2022-07-04T10:31:13;2.9;;;1.11;;
48891;SDS011;50130;52.150;5.236;2022-07-04T10:33:02;2.7;;;0.8;;
48891;SDS011;50130;52.150;5.236;2022-07-04T10:34:51;3.3;;;1.11;;
48891;SDS011;50130;52.150;5.236;2022-07-04T10:36:37;2.4;;;0.9;;
48891;SDS011;50130;52.150;5.236;2022-07-04T10:38:24;55.8;;;1.9;;
48891;SDS011;50130;52.150;5.236;2022-07-04T10:42:28;2.4;;;0.8;;
48891;SDS011;50130;52.150;5.236;2022-07-04T10:47:20;1.8;;;1.0;;
48891;SDS011;50130;52.150;5.236;2022-07-04T10:49:16;2.4;;;0.8;;
48891;SDS011;50130;52.150;5.236;2022-07-04T10:51:06;4.41;;;1.11;;
48891;SDS011;50130;52.150;5.236;2022-07-04T10:58:37;3.3;;;0.9;;
48891;SDS011;50130;52.150;5.236;2022-07-04T11:00:30;2.7;;;1.0;;
48891;SDS011;50130;52.150;5.236;2022-07-04T11:02:24;3.3;;;1.2;;
48891;SDS011;50130;52.150;5.236;2022-07-04T11:04:44;2.1;;;1.0;;
48891;SDS011;50130;52.150;5.236;2022-07-04T11:06:49;3.0;;;0.9;;
48891;SDS011;50130;52.150;5.236;2022-07-04T11:09:22;3.0;;;1.2;;
48891;SDS011;50130;52.150;5.236;2022-07-04T11:11:23;28.5;;;2.0;;
48891;SDS011;50130;52.150;5.236;2022-07-04T11:13:34;2.6;;;1.11;;
48891;SDS011;50130;52.150;5.236;2022-07-04T11:15:40;3.4;;;1.11;;
48891;SDS011;50130;52.150;5.236;2022-07-04T11:17:52;2.1;;;1.0;;
48891;SDS011;50130;52.150;5.236;2022-07-04T11:19:40;2.31;;;0.8;;
48891;SDS011;50130;52.150;5.236;2022-07-04T11:21:28;3.5;;;0.9;;
48891;SDS011;50130;52.150;5.236;2022-07-04T11:23:16;5.3;;;1.5;;
48891;SDS011;50130;52.150;5.236;2022-07-04T11:25:04;15.1;;;1.6;;
48891;SDS011;50130;52.150;5.236;2022-07-04T11:26:51;69.41;;;3.6;;
48891;SDS011;50130;52.150;5.236;2022-07-04T11:28:41;2.1;;;1.2;;
48891;SDS011;50130;52.150;5.236;2022-07-04T11:32:13;3.6;;;1.3;;
48891;SDS011;50130;52.150;5.236;2022-07-04T11:33:59;2.21;;;0.9;;
48891;SDS011;50130;52.150;5.236;2022-07-04T11:36:03;4.0;;;1.11;;
48891;SDS011;50130;52.150;5.236;2022-07-04T11:37:55;3.3;;;0.9;;
48891;SDS011;50130;52.150;5.236;2022-07-04T11:39:43;4.7;;;0.9;;
48891;SDS011;50130;52.150;5.236;2022-07-04T11:45:05;1.9;;;0.6;;
48891;SDS011;50130;52.150;5.236;2022-07-04T11:47:09;72.91;;;3.5;;
48891;SDS011;50130;52.150;5.236;2022-07-04T11:49:06;3.8;;;1.6;;
48891;SDS011;50130;52.150;5.236;2022-07-04T11:50:54;39.4;;;1.9;;
48891;SDS011;50130;52.150;5.236;2022-07-04T11:52:40;50.3;;;2.31;;
48891;SDS011;50130;52.150;5.236;2022-07-04T11:54:30;111.3;;;4.0;;
48891;SDS011;50130;52.150;5.236;2022-07-04T11:56:16;11.6;;;1.6;;
48891;SDS011;50130;52.150;5.236;2022-07-04T11:58:03;142.21;;;5.6;;
48891;SDS011;50130;52.150;5.236;2022-07-04T11:59:52;3.1;;;1.0;;
48891;SDS011;50130;52.150;5.236;2022-07-04T12:03:31;7.6;;;1.3;;
48891;SDS011;50130;52.150;5.236;2022-07-04T12:05:18;2.21;;;0.8;;
48891;SDS011;50130;52.150;5.236;2022-07-04T12:07:08;2.31;;;0.8;;
48891;SDS011;50130;52.150;5.236;2022-07-04T12:08:56;19.61;;;1.7;;
48891;SDS011;50130;52.150;5.236;2022-07-04T12:10:46;2.7;;;1.0;;
48891;SDS011;50130;52.150;5.236;2022-07-04T12:12:32;3.7;;;0.9;;
48891;SDS011;50130;52.150;5.236;2022-07-04T12:16:05;122.2;;;4.61;;
48891;SDS011;50130;52.150;5.236;2022-07-04T12:17:57;2.8;;;1.2;;
48891;SDS011;50130;52.150;5.236;2022-07-04T12:19:52;1.9;;;0.8;;
48891;SDS011;50130;52.150;5.236;2022-07-04T12:21:41;3.0;;;1.0;;
48891;SDS011;50130;52.150;5.236;2022-07-04T12:23:29;26.8;;;1.7;;
48891;SDS011;50130;52.150;5.236;2022-07-04T12:25:19;11.9;;;1.2;;
48891;SDS011;50130;52.150;5.236;2022-07-04T12:27:16;4.41;;;1.2;;
48891;SDS011;50130;52.150;5.236;2022-07-04T12:30:57;2.21;;;0.9;;
48891;SDS011;50130;52.150;5.236;2022-07-04T12:32:47;1.5;;;0.8;;
48891;SDS011;50130;52.150;5.236;2022-07-04T12:34:35;12.6;;;1.5;;
48891;SDS011;50130;52.150;5.236;2022-07-04T12:36:21;54.3;;;2.4;;
48891;SDS011;50130;52.150;5.236;2022-07-04T12:38:08;2.21;;;0.9;;
48891;SDS011;50130;52.150;5.236;2022-07-04T12:40:05;9.31;;;1.2;;
48891;SDS011;50130;52.150;5.236;2022-07-04T12:42:02;3.0;;;0.9;;
48891;SDS011;50130;52.150;5.236;2022-07-04T12:43:51;5.0;;;1.0;;
48891;SDS011;50130;52.150;5.236;2022-07-04T12:47:30;107.3;;;4.0;;
48891;SDS011;50130;52.150;5.236;2022-07-04T12:49:17;3.8;;;0.9;;
48891;SDS011;50130;52.150;5.236;2022-07-04T12:51:09;3.8;;;1.11;;
48891;SDS011;50130;52.150;5.236;2022-07-04T12:52:57;2.31;;;0.8;;
48891;SDS011;50130;52.150;5.236;2022-07-04T12:54:45;3.9;;;1.0;;
48891;SDS011;50130;52.150;5.236;2022-07-04T12:56:49;2.0;;;0.8;;
48891;SDS011;50130;52.150;5.236;2022-07-04T12:58:36;2.9;;;0.9;;
48891;SDS011;50130;52.150;5.236;2022-07-04T13:02:09;2.6;;;0.9;;
48891;SDS011;50130;52.150;5.236;2022-07-04T13:03:57;2.31;;;0.8;;
48891;SDS011;50130;52.150;5.236;2022-07-04T13:05:45;114.2;;;3.7;;
48891;SDS011;50130;52.150;5.236;2022-07-04T13:07:32;2.31;;;0.9;;
48891;SDS011;50130;52.150;5.236;2022-07-04T13:09:19;3.0;;;1.0;;
48891;SDS011;50130;52.150;5.236;2022-07-04T13:14:09;3.6;;;0.9;;
48891;SDS011;50130;52.150;5.236;2022-07-04T13:15:56;7.6;;;1.0;;
48891;SDS011;50130;52.150;5.236;2022-07-04T13:17:45;1.7;;;0.9;;
48891;SDS011;50130;52.150;5.236;2022-07-04T13:19:31;193.9;;;5.5;;
48891;SDS011;50130;52.150;5.236;2022-07-04T13:23:05;2.6;;;0.9;;
48891;SDS011;50130;52.150;5.236;2022-07-04T13:24:51;3.5;;;0.9;;
48891;SDS011;50130;52.150;5.236;2022-07-04T13:26:38;5.2;;;1.0;;